Time;durP1;ratioP1;P1;durP2;ratioP2;P2;SDS_P1;SDS_P2;PMS_P1;PMS_P2;Temp;Humidity;BMP_temperature;BMP_pressure;BME280_temperature;BME280_humidity;BME280_pressure;Samples;Min_cycle;Max_cycle;Signal;HPM_P1;HPM_P2
2023/06/13 00:01:50;;;;;;;1.65;1.25;;;21.60;91.70;;;;;;5013153;28;20448;-66
2023/06/13 00:04:23;;;;;;;0.00;0.00;;;21.40;90.80;;;;;;5001432;28;20501;-66
2023/06/13 00:06:56;;;;;;;0.00;0.00;;;21.50;91.30;;;;;;5010097;28;20470;-66
2023/06/13 00:09:25;;;;;;;0.47;0.25;;;21.40;90.90;;;;;;5005590;28;20049;-66
2023/06/13 00:11:51;;;;;;;0.00;0.00;;;21.40;90.70;;;;;;5004270;28;20057;-66
2023/06/13 00:14:21;;;;;;;0.82;0.82;;;21.40;91.00;;;;;;5009872;28;20065;-66
2023/06/13 00:16:47;;;;;;;0.88;0.52;;;21.40;91.10;;;;;;5012461;28;20433;-66
2023/06/13 00:19:14;;;;;;;0.00;0.00;;;21.30;90.70;;;;;;5008853;28;20053;-66
2023/06/13 00:21:41;;;;;;;0.40;0.40;;;21.20;90.90;;;;;;5002402;28;20375;-66
2023/06/13 00:24:07;;;;;;;0.10;0.10;;;21.20;90.50;;;;;;5012899;28;20100;-66
2023/06/13 00:26:33;;;;;;;0.20;0.20;;;21.20;90.70;;;;;;5006926;28;20477;-66
2023/06/13 00:28:58;;;;;;;0.30;0.25;;;21.30;90.50;;;;;;5005641;28;20056;-66
2023/06/13 00:31:28;;;;;;;0.28;0.28;;;21.20;91.10;;;;;;5012233;28;20060;-66
2023/06/13 00:33:57;;;;;;;0.20;0.20;;;21.30;90.50;;;;;;5013211;28;20042;-66
2023/06/13 00:36:25;;;;;;;0.00;0.00;;;21.30;90.60;;;;;;5007815;28;20042;-66
2023/06/13 00:38:57;;;;;;;0.00;0.00;;;21.20;91.50;;;;;;5009913;28;20092;-66
2023/06/13 00:41:23;;;;;;;1.63;0.70;;;21.10;90.60;;;;;;5011456;28;20061;-66
2023/06/13 00:43:49;;;;;;;0.45;0.45;;;21.10;90.60;;;;;;5006813;28;20049;-66
2023/06/13 00:46:17;;;;;;;0.00;0.00;;;21.10;91.00;;;;;;5012081;28;20379;-66
2023/06/13 00:48:44;;;;;;;0.50;0.50;;;21.00;91.00;;;;;;5028012;28;20099;-66
2023/06/13 00:51:12;;;;;;;0.77;0.77;;;21.00;90.80;;;;;;5003586;28;20100;-66
2023/06/13 00:53:38;;;;;;;6.70;0.65;;;20.90;90.90;;;;;;5010333;28;20129;-66
2023/06/13 00:56:06;;;;;;;0.17;0.17;;;20.90;91.00;;;;;;5013040;28;20430;-66
2023/06/13 00:58:33;;;;;;;1.85;0.25;;;20.90;91.20;;;;;;5001393;28;20093;-66
2023/06/13 01:00:59;;;;;;;0.00;0.00;;;20.80;91.00;;;;;;5004688;28;20120;-66
2023/06/13 01:03:25;;;;;;;0.08;0.08;;;20.70;91.00;;;;;;5012632;28;20080;-66
2023/06/13 01:05:51;;;;;;;0.10;0.10;;;20.70;91.40;;;;;;5007799;28;20069;-66
2023/06/13 01:08:21;;;;;;;0.22;0.22;;;20.60;91.20;;;;;;4997872;28;20100;-66
2023/06/13 01:10:52;;;;;;;0.52;0.52;;;20.70;91.60;;;;;;5009027;28;20126;-66
2023/06/13 01:13:34;;;;;;;0.98;0.65;;;20.60;91.80;;;;;;5005081;28;20064;-66
2023/06/13 01:16:12;;;;;;;0.00;0.00;;;20.60;91.70;;;;;;5012560;28;20061;-66
2023/06/13 01:18:43;;;;;;;0.28;0.28;;;20.50;92.20;;;;;;5003874;28;20056;-66
2023/06/13 01:21:09;;;;;;;0.10;0.10;;;20.40;92.10;;;;;;5031606;28;20096;-66
2023/06/13 01:23:44;;;;;;;0.00;0.00;;;20.50;92.30;;;;;;5012603;28;20038;-66
2023/06/13 01:26:16;;;;;;;0.13;0.13;;;20.50;92.10;;;;;;5023576;28;20405;-66
2023/06/13 01:28:43;;;;;;;0.10;0.10;;;20.40;92.10;;;;;;5012364;28;20042;-66
2023/06/13 01:31:13;;;;;;;0.10;0.10;;;20.40;92.30;;;;;;5012426;28;20054;-66
2023/06/13 01:33:40;;;;;;;0.10;0.10;;;20.30;92.40;;;;;;5006035;28;20054;-66
2023/06/13 01:36:06;;;;;;;0.10;0.10;;;20.20;92.60;;;;;;5018313;28;20038;-66
2023/06/13 01:38:32;;;;;;;0.20;0.20;;;20.20;92.60;;;;;;5012278;28;20061;-66
2023/06/13 01:40:58;;;;;;;0.13;0.10;;;20.20;92.70;;;;;;5003181;28;20046;-66
2023/06/13 01:43:23;;;;;;;0.00;0.00;;;20.10;92.70;;;;;;5011601;28;20057;-66
2023/06/13 01:45:56;;;;;;;0.32;0.32;;;20.10;92.70;;;;;;5012234;28;20069;-66
2023/06/13 01:48:35;;;;;;;1.25;0.73;;;20.10;92.70;;;;;;5011045;28;20603;-66
2023/06/13 01:51:14;;;;;;;1.08;0.80;;;20.00;92.80;;;;;;5000229;28;20046;-66
2023/06/13 01:54:00;;;;;;;0.15;0.15;;;19.90;92.60;;;;;;5009368;28;20059;-66
2023/06/13 01:56:29;;;;;;;0.10;0.10;;;19.90;93.00;;;;;;5011336;28;20042;-66
2023/06/13 01:58:57;;;;;;;0.43;0.30;;;19.90;93.00;;;;;;5008754;28;20077;-66
2023/06/13 02:01:25;;;;;;;0.20;0.20;;;19.90;93.00;;;;;;5003771;28;20042;-66
2023/06/13 02:03:51;;;;;;;0.80;0.52;;;19.80;92.90;;;;;;5010503;28;20117;-66
2023/06/13 02:06:17;;;;;;;0.10;0.10;;;19.80;93.20;;;;;;4998265;28;20460;-66
2023/06/13 02:08:44;;;;;;;0.00;0.00;;;19.70;93.10;;;;;;5005244;28;20076;-66
2023/06/13 02:11:10;;;;;;;0.30;0.30;;;19.70;93.30;;;;;;5001365;28;20130;-66
2023/06/13 02:13:36;;;;;;;0.00;0.00;;;19.70;93.40;;;;;;5009296;28;20484;-66
2023/06/13 02:16:01;;;;;;;0.00;0.00;;;19.70;93.50;;;;;;5005234;28;20046;-66
2023/06/13 02:18:27;;;;;;;0.63;0.50;;;19.60;93.50;;;;;;5008962;28;20100;-66
2023/06/13 02:20:56;;;;;;;0.20;0.20;;;19.50;93.60;;;;;;5003051;28;20092;-66
2023/06/13 02:23:23;;;;;;;0.25;0.20;;;19.50;93.60;;;;;;5005375;28;20046;-66
2023/06/13 02:25:51;;;;;;;0.50;0.50;;;19.50;93.60;;;;;;5011736;28;20061;-66
2023/06/13 02:28:18;;;;;;;2.05;0.52;;;19.40;93.60;;;;;;5007869;28;20037;-66
2023/06/13 02:30:44;;;;;;;1.38;0.52;;;19.40;93.70;;;;;;5004957;28;20061;-66
2023/06/13 02:33:10;;;;;;;0.52;0.20;;;19.30;93.90;;;;;;5011709;28;20181;-66
2023/06/13 02:35:36;;;;;;;0.10;0.10;;;19.30;94.00;;;;;;5009254;28;20133;-66
2023/06/13 02:38:06;;;;;;;1.27;1.17;;;19.20;94.10;;;;;;4996144;28;20475;-66
2023/06/13 02:40:32;;;;;;;0.00;0.00;;;19.10;94.40;;;;;;5009395;28;20046;-66
2023/06/13 02:42:58;;;;;;;0.00;0.00;;;19.10;94.30;;;;;;5011835;28;20041;-66
2023/06/13 02:45:23;;;;;;;0.00;0.00;;;19.00;94.10;;;;;;5008727;28;20042;-66
2023/06/13 02:47:50;;;;;;;1.00;0.52;;;19.00;94.70;;;;;;5007015;28;20068;-66
2023/06/13 02:50:16;;;;;;;0.10;0.10;;;18.90;94.60;;;;;;5011679;28;20564;-66
2023/06/13 02:52:42;;;;;;;0.20;0.10;;;18.90;94.40;;;;;;5000206;28;20085;-66
2023/06/13 02:55:08;;;;;;;0.98;0.50;;;19.00;94.50;;;;;;5007906;28;20034;-66
2023/06/13 02:57:36;;;;;;;0.00;0.00;;;18.90;94.80;;;;;;5003312;28;20041;-66
2023/06/13 03:00:06;;;;;;;0.57;0.57;;;18.90;94.70;;;;;;5014434;28;20085;-66
2023/06/13 03:02:32;;;;;;;0.10;0.10;;;18.80;94.50;;;;;;5014916;28;20080;-66
2023/06/13 03:04:58;;;;;;;0.22;0.10;;;18.80;94.50;;;;;;5008302;28;20042;-66
2023/06/13 03:07:23;;;;;;;0.10;0.10;;;18.70;94.60;;;;;;5015062;28;20049;-67
2023/06/13 03:09:49;;;;;;;0.00;0.00;;;18.70;95.00;;;;;;5013452;28;20049;-67
2023/06/13 03:12:15;;;;;;;0.10;0.10;;;18.70;94.60;;;;;;5005807;28;20054;-66
2023/06/13 03:14:41;;;;;;;0.00;0.00;;;18.60;94.60;;;;;;5008874;28;20188;-66
2023/06/13 03:17:07;;;;;;;0.82;0.82;;;18.70;95.10;;;;;;5014531;28;20058;-66
2023/06/13 03:19:33;;;;;;;0.08;0.08;;;18.60;94.70;;;;;;5006657;28;20478;-67
2023/06/13 03:21:58;;;;;;;1.00;0.80;;;18.60;94.80;;;;;;5006933;28;20057;-66
2023/06/13 03:24:24;;;;;;;0.30;0.30;;;18.50;94.80;;;;;;5014632;28;20038;-67
2023/06/13 03:26:49;;;;;;;0.05;0.05;;;18.60;94.80;;;;;;5013963;28;20091;-67
2023/06/13 03:29:15;;;;;;;0.20;0.10;;;18.60;94.80;;;;;;5001376;28;20138;-66
2023/06/13 03:31:41;;;;;;;0.28;0.28;;;18.60;94.70;;;;;;5014387;28;20046;-66
2023/06/13 03:34:06;;;;;;;0.00;0.00;;;18.60;94.70;;;;;;5003056;28;20046;-66
2023/06/13 03:36:37;;;;;;;7.90;0.60;;;18.50;94.30;;;;;;5006673;28;20046;-66
2023/06/13 03:39:02;;;;;;;8.82;0.20;;;18.40;94.80;;;;;;5014246;28;20058;-66
2023/06/13 03:41:28;;;;;;;1.58;0.52;;;18.40;94.30;;;;;;5009089;28;20145;-66
2023/06/13 03:43:54;;;;;;;0.13;0.13;;;18.50;95.00;;;;;;5003941;28;20046;-66
2023/06/13 03:46:20;;;;;;;0.30;0.22;;;18.50;94.60;;;;;;5013902;28;20085;-67
2023/06/13 03:48:46;;;;;;;1.55;0.77;;;18.50;94.50;;;;;;5005604;28;20042;-67
2023/06/13 03:51:11;;;;;;;0.95;0.22;;;18.50;94.50;;;;;;5000252;28;20041;-67
2023/06/13 03:53:38;;;;;;;1.00;0.60;;;18.60;94.50;;;;;;5014302;28;20050;-67
2023/06/13 03:56:06;;;;;;;0.10;0.10;;;18.50;94.60;;;;;;5008834;28;20043;-67
2023/06/13 03:58:32;;;;;;;0.90;0.28;;;18.50;94.80;;;;;;5005033;28;20049;-66
2023/06/13 04:00:58;;;;;;;0.15;0.15;;;18.50;94.40;;;;;;5011873;28;20128;-67
2023/06/13 04:03:24;;;;;;;0.00;0.00;;;18.50;94.10;;;;;;5014104;28;20128;-66
2023/06/13 04:05:49;;;;;;;0.17;0.17;;;18.50;94.60;;;;;;5009494;28;20046;-67
2023/06/13 04:08:15;;;;;;;0.08;0.08;;;18.50;94.30;;;;;;5003095;28;20034;-66
2023/06/13 04:10:40;;;;;;;0.10;0.10;;;18.40;94.40;;;;;;5013798;28;20034;-67
2023/06/13 04:13:06;;;;;;;0.57;0.40;;;18.40;94.40;;;;;;5002937;28;20050;-67
2023/06/13 04:15:31;;;;;;;0.90;0.73;;;18.50;94.40;;;;;;5007319;28;20126;-66
2023/06/13 04:17:57;;;;;;;0.15;0.15;;;18.50;94.20;;;;;;5013875;28;20050;-67
2023/06/13 04:20:23;;;;;;;0.00;0.00;;;18.40;94.50;;;;;;5011632;28;20042;-67
2023/06/13 04:22:49;;;;;;;0.22;0.20;;;18.50;94.70;;;;;;4999525;28;20056;-67
2023/06/13 04:25:15;;;;;;;0.70;0.70;;;18.50;94.30;;;;;;5011090;28;20053;-67
2023/06/13 04:27:43;;;;;;;0.03;0.03;;;18.60;94.40;;;;;;5007024;28;20390;-67
2023/06/13 04:30:09;;;;;;;0.10;0.10;;;18.60;94.50;;;;;;5005174;28;20050;-67
2023/06/13 04:32:37;;;;;;;0.00;0.00;;;18.50;94.50;;;;;;5009455;28;20045;-67
2023/06/13 04:35:03;;;;;;;0.35;0.35;;;18.50;94.60;;;;;;4998241;28;20510;-66
2023/06/13 04:37:30;;;;;;;0.45;0.28;;;18.50;94.60;;;;;;5010274;28;20463;-66
2023/06/13 04:39:56;;;;;;;0.00;0.00;;;18.40;94.60;;;;;;5010830;28;20041;-67
2023/06/13 04:42:29;;;;;;;0.13;0.13;;;18.50;94.60;;;;;;4999214;28;20398;-67
2023/06/13 04:44:56;;;;;;;0.00;0.00;;;18.50;94.20;;;;;;5004856;28;20417;-67
2023/06/13 04:47:24;;;;;;;0.28;0.28;;;18.50;94.80;;;;;;5013678;28;20081;-67
2023/06/13 04:49:58;;;;;;;0.20;0.20;;;18.50;94.80;;;;;;4997485;28;20050;-67
2023/06/13 04:52:32;;;;;;;0.22;0.22;;;18.50;94.70;;;;;;5007628;28;20064;-67
2023/06/13 04:55:04;;;;;;;0.47;0.47;;;18.60;94.70;;;;;;5009525;28;20042;-67
2023/06/13 04:57:31;;;;;;;2.33;1.55;;;18.60;94.70;;;;;;5006213;28;20080;-66
2023/06/13 04:59:57;;;;;;;0.68;0.52;;;18.70;94.30;;;;;;5013239;28;20042;-67
2023/06/13 05:02:23;;;;;;;0.38;0.38;;;18.60;94.20;;;;;;5000195;28;20108;-67
2023/06/13 05:04:49;;;;;;;0.20;0.20;;;18.70;94.30;;;;;;5009475;28;20041;-67
2023/06/13 05:07:16;;;;;;;0.00;0.00;;;18.60;94.10;;;;;;5006610;28;20049;-67
2023/06/13 05:09:45;;;;;;;0.55;0.45;;;18.70;94.30;;;;;;5005354;28;20045;-67
2023/06/13 05:12:12;;;;;;;0.20;0.20;;;18.70;94.10;;;;;;5007730;28;20072;-67
2023/06/13 05:14:40;;;;;;;0.00;0.00;;;18.70;94.00;;;;;;5002784;28;20044;-67
2023/06/13 05:17:06;;;;;;;0.00;0.00;;;18.80;93.90;;;;;;5012981;28;20144;-67
2023/06/13 05:19:34;;;;;;;0.00;0.00;;;18.80;93.80;;;;;;5012372;28;20045;-67
2023/06/13 05:22:02;;;;;;;4.90;0.98;;;18.80;94.30;;;;;;5004139;28;20050;-67
2023/06/13 05:24:28;;;;;;;0.00;0.00;;;18.90;93.80;;;;;;5004499;28;20053;-67
2023/06/13 05:26:54;;;;;;;0.00;0.00;;;18.90;93.70;;;;;;5004627;28;20052;-67
2023/06/13 05:29:19;;;;;;;0.35;0.35;;;18.90;93.80;;;;;;5012337;28;20493;-67
2023/06/13 05:31:45;;;;;;;0.10;0.10;;;18.90;93.90;;;;;;5009354;28;20496;-67
2023/06/13 05:34:10;;;;;;;0.20;0.20;;;19.00;93.70;;;;;;4998021;28;20046;-67
2023/06/13 05:36:36;;;;;;;0.90;0.38;;;19.00;93.50;;;;;;5011768;28;20046;-67
2023/06/13 05:39:01;;;;;;;0.00;0.00;;;19.00;93.20;;;;;;5010907;28;20041;-67
2023/06/13 05:41:27;;;;;;;0.25;0.25;;;19.10;93.80;;;;;;5007291;28;20046;-67
2023/06/13 05:43:53;;;;;;;0.00;0.00;;;19.20;93.70;;;;;;5010176;28;20450;-67
2023/06/13 05:46:18;;;;;;;2.17;1.17;;;19.20;93.10;;;;;;5007264;28;20132;-67
2023/06/13 05:48:44;;;;;;;0.22;0.22;;;19.20;92.90;;;;;;5011586;28;20046;-67
2023/06/13 05:51:10;;;;;;;0.38;0.38;;;19.10;93.40;;;;;;5012216;28;20056;-67
2023/06/13 05:53:35;;;;;;;0.30;0.30;;;19.30;93.00;;;;;;5003757;28;20042;-67
2023/06/13 05:56:01;;;;;;;0.10;0.10;;;19.30;92.90;;;;;;5008272;28;20046;-67
2023/06/13 05:58:27;;;;;;;0.00;0.00;;;19.30;94.10;;;;;;5012208;28;20053;-67
2023/06/13 06:00:53;;;;;;;1.02;0.95;;;19.30;92.60;;;;;;5007826;28;20045;-67
2023/06/13 06:03:19;;;;;;;2.63;0.55;;;19.40;93.80;;;;;;4999525;28;20041;-67
2023/06/13 06:05:45;;;;;;;0.10;0.10;;;19.40;93.30;;;;;;5008548;28;20394;-67
2023/06/13 06:08:11;;;;;;;0.00;0.00;;;19.40;92.70;;;;;;5008631;28;20087;-67
2023/06/13 06:10:37;;;;;;;1.00;0.50;;;19.40;92.50;;;;;;4993198;28;20053;-67
2023/06/13 06:13:03;;;;;;;0.13;0.13;;;19.50;93.50;;;;;;5009966;28;20394;-67
2023/06/13 06:15:29;;;;;;;0.15;0.15;;;19.50;92.70;;;;;;5011617;28;20077;-67
2023/06/13 06:17:55;;;;;;;0.00;0.00;;;19.60;92.70;;;;;;5009190;28;20060;-67
2023/06/13 06:20:20;;;;;;;0.15;0.15;;;19.60;93.00;;;;;;5006114;28;20052;-67
2023/06/13 06:22:46;;;;;;;0.25;0.25;;;19.60;92.60;;;;;;5014656;28;20046;-67
2023/06/13 06:25:19;;;;;;;0.25;0.25;;;19.60;92.20;;;;;;5011896;28;20125;-67
2023/06/13 06:27:46;;;;;;;0.32;0.32;;;19.80;93.10;;;;;;5006855;28;21049;-67
2023/06/13 06:30:11;;;;;;;2.47;0.35;;;19.80;93.40;;;;;;5005243;28;20058;-67
2023/06/13 06:32:37;;;;;;;0.20;0.17;;;20.00;92.60;;;;;;5010272;28;20054;-67
2023/06/13 06:35:06;;;;;;;0.03;0.03;;;19.90;92.40;;;;;;5012364;28;20452;-67
2023/06/13 06:37:32;;;;;;;0.10;0.10;;;20.00;92.20;;;;;;5011755;28;20050;-67
2023/06/13 06:39:58;;;;;;;0.10;0.10;;;20.00;92.30;;;;;;5015528;28;20040;-67
2023/06/13 06:42:23;;;;;;;0.35;0.35;;;20.10;92.70;;;;;;5000519;28;20048;-67
2023/06/13 06:44:49;;;;;;;0.15;0.15;;;20.30;92.60;;;;;;5007222;28;20033;-67
2023/06/13 06:47:15;;;;;;;0.10;0.10;;;20.40;93.80;;;;;;5015455;28;20429;-67
2023/06/13 06:49:41;;;;;;;0.00;0.00;;;20.50;92.10;;;;;;5005540;28;20100;-67
2023/06/13 06:52:07;;;;;;;0.30;0.30;;;20.50;92.10;;;;;;5009987;28;20100;-66
2023/06/13 06:54:32;;;;;;;0.25;0.25;;;20.50;93.10;;;;;;5015019;28;20046;-67
2023/06/13 06:56:58;;;;;;;0.50;0.50;;;20.70;91.50;;;;;;5014412;28;20050;-67
2023/06/13 06:59:24;;;;;;;1.15;0.38;;;20.70;91.80;;;;;;5003611;28;20046;-67
2023/06/13 07:01:50;;;;;;;0.00;0.00;;;20.80;91.70;;;;;;5012604;28;20042;-67
2023/06/13 07:04:16;;;;;;;0.63;0.47;;;20.90;91.30;;;;;;5006187;28;20035;-67
2023/06/13 07:06:42;;;;;;;0.05;0.05;;;20.90;91.70;;;;;;5039160;28;20370;-67
2023/06/13 07:09:10;;;;;;;0.35;0.35;;;21.10;92.30;;;;;;5014855;28;20053;-67
2023/06/13 07:11:35;;;;;;;0.28;0.28;;;21.20;91.50;;;;;;5003027;28;20382;-67
2023/06/13 07:14:01;;;;;;;0.00;0.00;;;21.30;91.80;;;;;;5006958;28;20042;-67
2023/06/13 07:16:27;;;;;;;3.60;0.30;;;21.40;91.50;;;;;;5014497;28;20034;-67
2023/06/13 07:18:52;;;;;;;0.00;0.00;;;21.50;91.30;;;;;;5007827;28;20069;-67
2023/06/13 07:21:18;;;;;;;0.00;0.00;;;21.60;92.10;;;;;;5009636;28;20044;-67
2023/06/13 07:23:44;;;;;;;0.00;0.00;;;21.70;91.80;;;;;;5011801;28;20393;-67
2023/06/13 07:26:11;;;;;;;1.30;0.57;;;21.80;91.30;;;;;;5003277;28;20482;-67
2023/06/13 07:28:37;;;;;;;0.70;0.70;;;21.80;91.60;;;;;;5005089;28;20490;-67
2023/06/13 07:31:02;;;;;;;0.00;0.00;;;21.80;91.10;;;;;;5012500;28;20085;-67
2023/06/13 07:33:28;;;;;;;0.00;0.00;;;21.90;90.90;;;;;;5013235;28;20049;-67
2023/06/13 07:35:56;;;;;;;0.30;0.20;;;22.00;90.20;;;;;;5004687;28;20125;-67
2023/06/13 07:38:21;;;;;;;0.08;0.08;;;22.00;90.70;;;;;;5004794;28;20168;-67
2023/06/13 07:40:47;;;;;;;0.10;0.10;;;22.10;90.50;;;;;;5011435;28;20132;-67
2023/06/13 07:43:13;;;;;;;0.00;0.00;;;22.10;90.90;;;;;;5001772;28;20046;-68
2023/06/13 07:45:38;;;;;;;0.00;0.00;;;22.20;91.80;;;;;;5012739;28;20046;-67
2023/06/13 07:48:04;;;;;;;0.10;0.10;;;22.30;90.70;;;;;;5004213;28;20042;-68
2023/06/13 07:50:30;;;;;;;0.00;0.00;;;22.40;90.40;;;;;;5013299;28;20046;-67
2023/06/13 07:52:55;;;;;;;0.00;0.00;;;22.40;91.10;;;;;;5002396;28;20053;-67
2023/06/13 07:55:21;;;;;;;0.00;0.00;;;22.50;91.10;;;;;;5026352;28;20049;-67
2023/06/13 07:57:47;;;;;;;0.32;0.32;;;22.60;90.40;;;;;;5009763;28;20053;-67
2023/06/13 08:00:16;;;;;;;0.00;0.00;;;22.60;90.00;;;;;;5005526;28;20046;-67
2023/06/13 08:02:45;;;;;;;0.00;0.00;;;22.70;90.20;;;;;;5029548;28;20045;-67
2023/06/13 08:05:12;;;;;;;0.00;0.00;;;22.90;90.10;;;;;;4997594;28;20034;-67
2023/06/13 08:07:38;;;;;;;0.10;0.10;;;22.90;89.10;;;;;;5007363;28;20042;-67
2023/06/13 08:10:04;;;;;;;0.50;0.50;;;22.90;89.50;;;;;;5008787;28;20044;-67
2023/06/13 08:12:30;;;;;;;0.10;0.10;;;23.00;88.50;;;;;;5006152;28;20042;-67
2023/06/13 08:14:56;;;;;;;0.00;0.00;;;23.00;88.30;;;;;;5001326;28;20454;-68
2023/06/13 08:17:21;;;;;;;0.00;0.00;;;23.10;88.40;;;;;;5005417;28;20034;-67
2023/06/13 08:19:50;;;;;;;0.00;0.00;;;23.20;89.20;;;;;;5000471;28;20034;-67
2023/06/13 08:22:16;;;;;;;0.10;0.10;;;23.30;89.10;;;;;;5042881;28;20042;-67
2023/06/13 08:24:41;;;;;;;0.00;0.00;;;23.40;87.00;;;;;;5013646;28;20158;-67
2023/06/13 08:27:07;;;;;;;0.00;0.00;;;23.40;87.40;;;;;;4999271;28;20133;-67
2023/06/13 08:29:33;;;;;;;0.00;0.00;;;23.50;87.00;;;;;;5005094;28;20054;-67
2023/06/13 08:31:59;;;;;;;4.65;0.22;;;23.60;87.60;;;;;;5005866;28;20054;-67
2023/06/13 08:34:26;;;;;;;0.35;0.30;;;23.70;87.50;;;;;;5009474;28;20038;-67
2023/06/13 08:36:52;;;;;;;0.30;0.30;;;23.70;85.80;;;;;;5011485;28;20540;-68
2023/06/13 08:39:17;;;;;;;1.05;0.75;;;23.70;85.50;;;;;;5013171;28;20042;-67
2023/06/13 08:41:44;;;;;;;0.45;0.45;;;23.90;87.20;;;;;;5007021;28;20045;-67
2023/06/13 08:44:09;;;;;;;0.20;0.20;;;23.90;87.50;;;;;;5000109;28;20513;-67
2023/06/13 08:46:36;;;;;;;0.00;0.00;;;24.00;85.10;;;;;;5013121;28;20053;-68
2023/06/13 08:49:02;;;;;;;0.98;0.28;;;24.00;84.30;;;;;;5012885;28;20077;-68
2023/06/13 08:51:30;;;;;;;6.72;0.47;;;24.00;84.00;;;;;;5006473;28;20045;-67
2023/06/13 08:54:05;;;;;;;0.32;0.32;;;24.10;84.60;;;;;;5009991;28;20065;-68
2023/06/13 08:56:43;;;;;;;0.00;0.00;;;24.10;84.30;;;;;;5003490;28;20039;-67
2023/06/13 08:59:14;;;;;;;0.38;0.30;;;24.20;85.10;;;;;;5036919;28;20049;-67
2023/06/13 09:01:43;;;;;;;0.05;0.05;;;24.20;83.80;;;;;;5003657;28;20042;-67
2023/06/13 09:04:11;;;;;;;0.00;0.00;;;24.30;85.10;;;;;;5009001;28;20103;-67
2023/06/13 09:06:37;;;;;;;0.52;0.35;;;24.40;86.50;;;;;;5012757;28;20133;-67
2023/06/13 09:09:07;;;;;;;0.10;0.10;;;24.40;85.50;;;;;;5012588;28;20045;-68
2023/06/13 09:11:36;;;;;;;0.00;0.00;;;24.50;85.20;;;;;;5018714;28;20046;-68
2023/06/13 09:14:03;;;;;;;0.73;0.73;;;24.50;86.60;;;;;;5005146;28;20056;-68
2023/06/13 09:16:30;;;;;;;0.45;0.45;;;24.60;85.70;;;;;;5001531;28;20042;-67
2023/06/13 09:18:57;;;;;;;0.43;0.43;;;24.70;85.60;;;;;;5002977;28;20172;-68
2023/06/13 09:21:23;;;;;;;0.00;0.00;;;24.80;84.60;;;;;;5007957;28;20099;-68
2023/06/13 09:23:49;;;;;;;0.28;0.28;;;24.80;84.30;;;;;;5011147;28;20520;-68
2023/06/13 09:26:18;;;;;;;0.00;0.00;;;24.90;84.50;;;;;;5011780;28;20042;-68
2023/06/13 09:28:47;;;;;;;0.00;0.00;;;24.90;85.80;;;;;;5003246;28;20176;-68
2023/06/13 09:31:13;;;;;;;0.20;0.20;;;24.90;85.90;;;;;;5006027;28;20046;-68
2023/06/13 09:33:39;;;;;;;0.25;0.15;;;25.00;85.00;;;;;;5003324;28;20050;-68
2023/06/13 09:36:07;;;;;;;0.00;0.00;;;25.10;83.60;;;;;;5002108;28;20498;-68
2023/06/13 09:38:40;;;;;;;0.00;0.00;;;25.10;84.10;;;;;;5004465;28;20141;-67
2023/06/13 09:41:12;;;;;;;0.10;0.10;;;25.30;84.10;;;;;;5011185;28;20486;-68
2023/06/13 09:43:39;;;;;;;0.00;0.00;;;25.40;86.60;;;;;;5011834;28;20124;-68
2023/06/13 09:46:04;;;;;;;0.00;0.00;;;25.70;85.40;;;;;;4999721;28;20068;-68
2023/06/13 09:48:31;;;;;;;0.08;0.08;;;26.20;85.20;;;;;;5009715;28;20474;-68
2023/06/13 09:50:57;;;;;;;0.30;0.20;;;26.40;82.60;;;;;;5011798;28;20050;-68
2023/06/13 09:53:22;;;;;;;0.10;0.10;;;26.70;83.30;;;;;;4999993;28;20404;-68
2023/06/13 09:55:49;;;;;;;0.88;0.30;;;26.80;82.60;;;;;;5009581;28;20073;-68
2023/06/13 09:58:16;;;;;;;0.00;0.00;;;27.00;82.60;;;;;;5011961;28;20042;-68
2023/06/13 10:00:42;;;;;;;0.10;0.10;;;27.10;81.70;;;;;;5008381;28;20046;-68
2023/06/13 10:03:08;;;;;;;0.20;0.20;;;27.10;80.70;;;;;;5005104;28;20039;-68
2023/06/13 10:05:34;;;;;;;0.10;0.10;;;27.20;81.60;;;;;;5001300;28;20046;-68
2023/06/13 10:08:00;;;;;;;5.80;0.60;;;27.20;81.30;;;;;;5009718;28;20605;-68
2023/06/13 10:10:26;;;;;;;0.10;0.10;;;27.30;78.50;;;;;;5010728;28;20351;-68
2023/06/13 10:12:58;;;;;;;1.35;0.82;;;27.20;81.10;;;;;;5011724;28;20115;-68
2023/06/13 10:15:31;;;;;;;0.00;0.00;;;27.30;79.80;;;;;;4997051;28;20092;-68
2023/06/13 10:17:59;;;;;;;0.17;0.17;;;27.40;82.00;;;;;;5008269;28;20045;-68
2023/06/13 10:20:28;;;;;;;0.35;0.28;;;27.50;80.60;;;;;;4996495;28;20397;-68
2023/06/13 10:22:56;;;;;;;0.00;0.00;;;27.50;83.30;;;;;;4998062;28;20135;-68
2023/06/13 10:25:25;;;;;;;0.00;0.00;;;27.70;82.80;;;;;;5006801;28;20502;-68
2023/06/13 10:27:53;;;;;;;0.10;0.03;;;27.70;82.60;;;;;;5003285;28;20120;-68
2023/06/13 10:30:31;;;;;;;0.13;0.13;;;27.70;82.80;;;;;;5011162;28;20061;-68
2023/06/13 10:32:59;;;;;;;0.08;0.08;;;27.70;78.30;;;;;;5001200;28;20067;-68
2023/06/13 10:35:50;;;;;;;0.32;0.32;;;27.90;83.00;;;;;;5009048;28;20046;-68
2023/06/13 10:38:26;;;;;;;0.13;0.13;;;28.00;80.80;;;;;;4998645;28;20050;-68
2023/06/13 10:41:30;;;;;;;0.00;0.00;;;27.90;83.00;;;;;;5004291;28;20089;-67
2023/06/13 10:44:03;;;;;;;0.45;0.45;;;27.80;82.70;;;;;;5003868;28;20042;-68
2023/06/13 10:46:29;;;;;;;0.00;0.00;;;27.90;84.10;;;;;;5005245;28;20383;-67
2023/06/13 10:48:59;;;;;;;1.17;0.75;;;27.70;80.80;;;;;;5003387;28;20185;-68
2023/06/13 10:51:27;;;;;;;0.52;0.10;;;27.70;82.60;;;;;;5009154;28;20045;-68
2023/06/13 10:54:01;;;;;;;0.80;0.15;;;27.70;83.10;;;;;;5006728;28;20133;-68
2023/06/13 10:56:32;;;;;;;1.38;0.73;;;27.70;84.90;;;;;;5007283;28;20042;-67
2023/06/13 10:59:02;;;;;;;0.10;0.10;;;27.90;85.80;;;;;;4998783;28;20622;-68
2023/06/13 11:01:33;;;;;;;0.35;0.20;;;27.90;86.30;;;;;;5011535;28;20042;-68
2023/06/13 11:04:09;;;;;;;0.05;0.05;;;27.80;81.80;;;;;;5005905;28;20109;-68
2023/06/13 11:06:35;;;;;;;0.00;0.00;;;28.10;84.40;;;;;;5004785;28;20034;-68
2023/06/13 11:09:20;;;;;;;0.00;0.00;;;28.00;84.80;;;;;;5014961;28;20425;-69
2023/06/13 11:11:51;;;;;;;0.00;0.00;;;28.00;86.80;;;;;;5002421;28;20052;-69
2023/06/13 11:14:41;;;;;;;0.40;0.40;;;28.10;85.60;;;;;;5011084;28;20622;-68
2023/06/13 11:17:07;;;;;;;0.55;0.43;;;28.00;85.70;;;;;;5004389;28;20057;-68
2023/06/13 11:19:34;;;;;;;0.00;0.00;;;28.20;86.30;;;;;;5014651;28;20042;-68
2023/06/13 11:22:00;;;;;;;0.00;0.00;;;28.30;85.20;;;;;;5010450;28;20168;-69
2023/06/13 11:24:30;;;;;;;0.43;0.38;;;28.20;84.60;;;;;;5008716;28;20136;-68
2023/06/13 11:26:59;;;;;;;0.30;0.30;;;28.10;84.80;;;;;;5007689;28;20171;-69
2023/06/13 11:29:26;;;;;;;0.30;0.30;;;28.20;83.20;;;;;;5014595;28;20132;-68
2023/06/13 11:31:53;;;;;;;0.00;0.00;;;28.10;83.60;;;;;;5012644;28;20061;-68
2023/06/13 11:34:24;;;;;;;0.43;0.20;;;28.30;85.10;;;;;;5010175;28;20903;-67
2023/06/13 11:36:53;;;;;;;0.63;0.13;;;28.50;80.80;;;;;;5006470;28;20046;-68
2023/06/13 11:39:30;;;;;;;0.00;0.00;;;28.30;80.80;;;;;;5006759;28;20057;-68
2023/06/13 11:41:57;;;;;;;0.00;0.00;;;28.40;85.30;;;;;;5001547;28;20038;-68
2023/06/13 11:44:23;;;;;;;0.00;0.00;;;28.40;80.40;;;;;;5014788;28;20050;-68
2023/06/13 11:46:50;;;;;;;0.10;0.08;;;28.60;82.00;;;;;;5009508;28;20501;-68
2023/06/13 11:49:16;;;;;;;0.00;0.00;;;28.70;81.90;;;;;;5013712;28;20631;-68
2023/06/13 11:51:43;;;;;;;0.20;0.20;;;28.60;80.10;;;;;;5014036;28;20125;-68
2023/06/13 11:54:10;;;;;;;0.00;0.00;;;28.70;83.70;;;;;;4999971;28;20046;-68
2023/06/13 11:56:40;;;;;;;0.00;0.00;;;28.70;81.20;;;;;;5014530;28;20131;-68
2023/06/13 11:59:35;;;;;;;0.28;0.28;;;28.50;81.80;;;;;;5004847;28;20069;-68
2023/06/13 12:02:01;;;;;;;0.00;0.00;;;28.80;85.00;;;;;;5005086;28;20058;-66
2023/06/13 12:04:29;;;;;;;1.85;0.63;;;28.50;81.30;;;;;;5004379;28;20038;-69
2023/06/13 12:06:55;;;;;;;0.20;0.20;;;28.90;83.80;;;;;;4995353;28;20378;-69
2023/06/13 12:09:21;;;;;;;0.10;0.10;;;29.00;84.60;;;;;;5014272;28;20030;-68
2023/06/13 12:11:47;;;;;;;0.10;0.08;;;29.00;83.90;;;;;;5009863;28;20181;-68
2023/06/13 12:14:13;;;;;;;0.00;0.00;;;28.90;84.40;;;;;;5002967;28;20488;-68
2023/06/13 12:16:40;;;;;;;0.00;0.00;;;29.00;84.10;;;;;;5012450;28;20073;-68
2023/06/13 12:19:07;;;;;;;0.00;0.00;;;29.00;85.70;;;;;;5013407;28;20046;-68
2023/06/13 12:21:37;;;;;;;0.95;0.15;;;29.60;82.90;;;;;;5003971;28;20536;-69
2023/06/13 12:24:06;;;;;;;0.85;0.45;;;29.50;83.20;;;;;;5010025;28;20046;-68
2023/06/13 12:26:33;;;;;;;0.00;0.00;;;29.30;83.40;;;;;;5008552;28;20042;-68
2023/06/13 12:29:05;;;;;;;0.00;0.00;;;29.50;84.70;;;;;;5005265;28;20585;-68
2023/06/13 12:31:41;;;;;;;0.00;0.00;;;29.30;83.50;;;;;;5008831;28;20065;-68
2023/06/13 12:34:07;;;;;;;0.00;0.00;;;29.30;83.40;;;;;;5007871;28;20061;-68
2023/06/13 12:36:44;;;;;;;0.00;0.00;;;29.60;85.60;;;;;;5012474;28;20049;-68
2023/06/13 12:39:14;;;;;;;0.05;0.05;;;29.50;84.30;;;;;;5004712;28;20061;-68
2023/06/13 12:41:48;;;;;;;0.00;0.00;;;29.90;82.40;;;;;;5003899;28;20516;-68
2023/06/13 12:44:14;;;;;;;0.10;0.10;;;29.90;79.80;;;;;;4999626;28;20050;-68
2023/06/13 12:46:40;;;;;;;0.20;0.20;;;29.50;82.30;;;;;;5011268;28;20065;-68
2023/06/13 12:49:10;;;;;;;0.00;0.00;;;29.30;81.40;;;;;;5012342;28;20505;-68
2023/06/13 12:51:42;;;;;;;0.10;0.10;;;29.80;82.30;;;;;;5008004;28;20045;-68